sensor_id;sensor_type;location;lat;lon;timestamp;P1;durP1;ratioP1;P2;durP2;ratioP2
65605;SDS011;52276;48.906;2.384;2022-07-25T00:00:29;1.18;;;0.4;;
65605;SDS011;52276;48.906;2.384;2022-07-25T00:01:29;1.13;;;0.33;;
65605;SDS011;52276;48.906;2.384;2022-07-25T00:02:29;1.4;;;0.51;;
65605;SDS011;52276;48.906;2.384;2022-07-25T00:03:29;1.24;;;0.43;;
65605;SDS011;52276;48.906;2.384;2022-07-25T00:04:29;1.2;;;0.49;;
65605;SDS011;52276;48.906;2.384;2022-07-25T00:05:29;1.37;;;0.54;;
65605;SDS011;52276;48.906;2.384;2022-07-25T00:06:29;1.17;;;0.46;;
65605;SDS011;52276;48.906;2.384;2022-07-25T00:07:29;1.13;;;0.39;;
65605;SDS011;52276;48.906;2.384;2022-07-25T00:08:29;1.25;;;0.53;;
65605;SDS011;52276;48.906;2.384;2022-07-25T00:09:29;1.29;;;0.49;;
65605;SDS011;52276;48.906;2.384;2022-07-25T00:10:29;1.39;;;0.59;;
65605;SDS011;52276;48.906;2.384;2022-07-25T00:11:29;1.48;;;0.58;;
65605;SDS011;52276;48.906;2.384;2022-07-25T00:12:29;1.2;;;0.42;;
65605;SDS011;52276;48.906;2.384;2022-07-25T00:13:29;1.29;;;0.51;;
65605;SDS011;52276;48.906;2.384;2022-07-25T00:14:29;1.13;;;0.39;;
65605;SDS011;52276;48.906;2.384;2022-07-25T00:15:29;1.19;;;0.46;;
65605;SDS011;52276;48.906;2.384;2022-07-25T00:16:29;1.19;;;0.45;;
65605;SDS011;52276;48.906;2.384;2022-07-25T00:17:29;1.32;;;0.54;;
65605;SDS011;52276;48.906;2.384;2022-07-25T00:18:29;1.17;;;0.47;;
65605;SDS011;52276;48.906;2.384;2022-07-25T00:19:29;1.14;;;0.42;;
65605;SDS011;52276;48.906;2.384;2022-07-25T00:20:29;1.25;;;0.39;;
65605;SDS011;52276;48.906;2.384;2022-07-25T00:21:29;1.18;;;0.41;;
65605;SDS011;52276;48.906;2.384;2022-07-25T00:22:29;1.23;;;0.42;;
65605;SDS011;52276;48.906;2.384;2022-07-25T00:23:29;1.79;;;0.59;;
65605;SDS011;52276;48.906;2.384;2022-07-25T00:24:29;1.23;;;0.46;;
65605;SDS011;52276;48.906;2.384;2022-07-25T00:25:29;1.26;;;0.53;;
65605;SDS011;52276;48.906;2.384;2022-07-25T00:26:29;1.24;;;0.44;;
65605;SDS011;52276;48.906;2.384;2022-07-25T00:27:29;1.22;;;0.54;;
65605;SDS011;52276;48.906;2.384;2022-07-25T00:28:29;1.3;;;0.47;;
65605;SDS011;52276;48.906;2.384;2022-07-25T00:29:29;1.5;;;0.54;;
65605;SDS011;52276;48.906;2.384;2022-07-25T00:30:29;1.24;;;0.49;;
65605;SDS011;52276;48.906;2.384;2022-07-25T00:31:29;1.19;;;0.47;;
65605;SDS011;52276;48.906;2.384;2022-07-25T00:32:29;1.22;;;0.51;;
65605;SDS011;52276;48.906;2.384;2022-07-25T00:33:29;1.29;;;0.61;;
65605;SDS011;52276;48.906;2.384;2022-07-25T00:34:29;1.38;;;0.68;;
65605;SDS011;52276;48.906;2.384;2022-07-25T00:35:29;1.32;;;0.64;;
65605;SDS011;52276;48.906;2.384;2022-07-25T00:36:29;1.22;;;0.53;;
65605;SDS011;52276;48.906;2.384;2022-07-25T00:37:29;1.25;;;0.52;;
65605;SDS011;52276;48.906;2.384;2022-07-25T00:38:29;1.38;;;0.73;;
65605;SDS011;52276;48.906;2.384;2022-07-25T00:39:29;1.18;;;0.55;;
65605;SDS011;52276;48.906;2.384;2022-07-25T00:40:29;1.15;;;0.51;;
65605;SDS011;52276;48.906;2.384;2022-07-25T00:41:29;1.18;;;0.49;;
65605;SDS011;52276;48.906;2.384;2022-07-25T00:42:29;1.25;;;0.49;;
65605;SDS011;52276;48.906;2.384;2022-07-25T00:43:29;1.24;;;0.54;;
65605;SDS011;52276;48.906;2.384;2022-07-25T00:44:29;1.26;;;0.62;;
65605;SDS011;52276;48.906;2.384;2022-07-25T00:45:29;1.25;;;0.42;;
65605;SDS011;52276;48.906;2.384;2022-07-25T00:46:29;1.18;;;0.43;;
65605;SDS011;52276;48.906;2.384;2022-07-25T00:47:29;1.4;;;0.53;;
65605;SDS011;52276;48.906;2.384;2022-07-25T00:48:29;1.28;;;0.58;;
65605;SDS011;52276;48.906;2.384;2022-07-25T00:49:29;1.23;;;0.43;;
65605;SDS011;52276;48.906;2.384;2022-07-25T00:50:29;1.31;;;0.73;;
65605;SDS011;52276;48.906;2.384;2022-07-25T00:51:29;1.34;;;0.65;;
65605;SDS011;52276;48.906;2.384;2022-07-25T00:52:29;1.26;;;0.43;;
65605;SDS011;52276;48.906;2.384;2022-07-25T00:53:29;1.23;;;0.53;;
65605;SDS011;52276;48.906;2.384;2022-07-25T00:54:29;1.3;;;0.6;;
65605;SDS011;52276;48.906;2.384;2022-07-25T00:55:29;1.23;;;0.55;;
65605;SDS011;52276;48.906;2.384;2022-07-25T00:56:29;1.25;;;0.5;;
65605;SDS011;52276;48.906;2.384;2022-07-25T00:57:29;1.54;;;0.56;;
65605;SDS011;52276;48.906;2.384;2022-07-25T00:58:29;1.31;;;0.59;;
65605;SDS011;52276;48.906;2.384;2022-07-25T00:59:29;1.16;;;0.47;;
65605;SDS011;52276;48.906;2.384;2022-07-25T01:00:29;1.06;;;0.32;;
65605;SDS011;52276;48.906;2.384;2022-07-25T01:01:29;1.23;;;0.46;;
65605;SDS011;52276;48.906;2.384;2022-07-25T01:02:29;1.12;;;0.36;;
65605;SDS011;52276;48.906;2.384;2022-07-25T01:03:29;1.3;;;0.57;;
65605;SDS011;52276;48.906;2.384;2022-07-25T01:04:29;1.2;;;0.41;;
65605;SDS011;52276;48.906;2.384;2022-07-25T01:05:29;1.25;;;0.35;;
65605;SDS011;52276;48.906;2.384;2022-07-25T01:06:29;1.33;;;0.54;;
65605;SDS011;52276;48.906;2.384;2022-07-25T01:07:29;1.26;;;0.49;;
65605;SDS011;52276;48.906;2.384;2022-07-25T01:08:29;1.16;;;0.44;;
65605;SDS011;52276;48.906;2.384;2022-07-25T01:09:29;1.2;;;0.48;;
65605;SDS011;52276;48.906;2.384;2022-07-25T01:10:29;1.2;;;0.5;;
65605;SDS011;52276;48.906;2.384;2022-07-25T01:11:29;1.25;;;0.55;;
65605;SDS011;52276;48.906;2.384;2022-07-25T01:12:29;1.21;;;0.49;;
65605;SDS011;52276;48.906;2.384;2022-07-25T01:13:30;1.26;;;0.47;;
65605;SDS011;52276;48.906;2.384;2022-07-25T01:14:29;1.23;;;0.48;;
65605;SDS011;52276;48.906;2.384;2022-07-25T01:15:29;1.61;;;0.48;;
65605;SDS011;52276;48.906;2.384;2022-07-25T01:16:29;1.33;;;0.49;;
65605;SDS011;52276;48.906;2.384;2022-07-25T01:17:29;1.21;;;0.54;;
65605;SDS011;52276;48.906;2.384;2022-07-25T01:18:29;1.18;;;0.43;;
65605;SDS011;52276;48.906;2.384;2022-07-25T01:19:29;1.18;;;0.43;;
65605;SDS011;52276;48.906;2.384;2022-07-25T01:20:29;1.3;;;0.56;;
65605;SDS011;52276;48.906;2.384;2022-07-25T01:21:29;1.16;;;0.41;;
65605;SDS011;52276;48.906;2.384;2022-07-25T01:22:29;1.35;;;0.47;;
65605;SDS011;52276;48.906;2.384;2022-07-25T01:23:29;1.13;;;0.31;;
65605;SDS011;52276;48.906;2.384;2022-07-25T01:24:29;1.27;;;0.62;;
65605;SDS011;52276;48.906;2.384;2022-07-25T01:25:29;1.12;;;0.34;;
65605;SDS011;52276;48.906;2.384;2022-07-25T01:26:29;1.18;;;0.44;;
65605;SDS011;52276;48.906;2.384;2022-07-25T01:27:30;1.29;;;0.63;;
65605;SDS011;52276;48.906;2.384;2022-07-25T01:28:29;1.16;;;0.41;;
65605;SDS011;52276;48.906;2.384;2022-07-25T01:29:29;1.21;;;0.4;;
65605;SDS011;52276;48.906;2.384;2022-07-25T01:30:29;1.18;;;0.35;;
65605;SDS011;52276;48.906;2.384;2022-07-25T01:31:29;1.16;;;0.46;;
65605;SDS011;52276;48.906;2.384;2022-07-25T01:32:29;1.2;;;0.51;;
65605;SDS011;52276;48.906;2.384;2022-07-25T01:33:29;1.29;;;0.66;;
65605;SDS011;52276;48.906;2.384;2022-07-25T01:34:29;1.24;;;0.53;;
65605;SDS011;52276;48.906;2.384;2022-07-25T01:35:29;1.18;;;0.47;;
65605;SDS011;52276;48.906;2.384;2022-07-25T01:36:29;1.21;;;0.53;;
65605;SDS011;52276;48.906;2.384;2022-07-25T01:37:29;1.19;;;0.44;;
65605;SDS011;52276;48.906;2.384;2022-07-25T01:38:29;1.15;;;0.37;;
65605;SDS011;52276;48.906;2.384;2022-07-25T01:39:29;1.13;;;0.35;;
65605;SDS011;52276;48.906;2.384;2022-07-25T01:40:29;1.17;;;0.38;;
65605;SDS011;52276;48.906;2.384;2022-07-25T01:41:29;1.19;;;0.54;;
65605;SDS011;52276;48.906;2.384;2022-07-25T01:42:29;1.2;;;0.43;;
65605;SDS011;52276;48.906;2.384;2022-07-25T01:43:29;1.23;;;0.42;;
65605;SDS011;52276;48.906;2.384;2022-07-25T01:44:29;1.25;;;0.53;;
65605;SDS011;52276;48.906;2.384;2022-07-25T01:45:29;1.06;;;0.29;;
65605;SDS011;52276;48.906;2.384;2022-07-25T01:46:29;1.21;;;0.53;;
65605;SDS011;52276;48.906;2.384;2022-07-25T01:47:29;1.26;;;0.54;;
65605;SDS011;52276;48.906;2.384;2022-07-25T01:48:29;1.24;;;0.56;;
65605;SDS011;52276;48.906;2.384;2022-07-25T01:49:29;1.18;;;0.46;;
65605;SDS011;52276;48.906;2.384;2022-07-25T01:50:29;1.16;;;0.46;;
65605;SDS011;52276;48.906;2.384;2022-07-25T01:51:29;1.18;;;0.49;;
65605;SDS011;52276;48.906;2.384;2022-07-25T01:52:29;1.16;;;0.44;;
65605;SDS011;52276;48.906;2.384;2022-07-25T01:53:29;1.17;;;0.45;;
65605;SDS011;52276;48.906;2.384;2022-07-25T01:54:29;1.26;;;0.52;;
65605;SDS011;52276;48.906;2.384;2022-07-25T01:55:29;1.19;;;0.47;;
65605;SDS011;52276;48.906;2.384;2022-07-25T01:56:29;1.13;;;0.37;;
65605;SDS011;52276;48.906;2.384;2022-07-25T01:57:29;1.14;;;0.42;;
65605;SDS011;52276;48.906;2.384;2022-07-25T01:58:31;1.26;;;0.45;;
65605;SDS011;52276;48.906;2.384;2022-07-25T01:59:29;1.4;;;0.41;;
65605;SDS011;52276;48.906;2.384;2022-07-25T02:00:29;1.1;;;0.4;;
65605;SDS011;52276;48.906;2.384;2022-07-25T02:01:29;1.2;;;0.59;;
65605;SDS011;52276;48.906;2.384;2022-07-25T02:02:29;1.22;;;0.66;;
65605;SDS011;52276;48.906;2.384;2022-07-25T02:03:29;1.17;;;0.66;;
65605;SDS011;52276;48.906;2.384;2022-07-25T02:04:29;1.27;;;0.78;;
65605;SDS011;52276;48.906;2.384;2022-07-25T02:05:29;1.25;;;0.71;;
65605;SDS011;52276;48.906;2.384;2022-07-25T02:06:29;1.21;;;0.62;;
65605;SDS011;52276;48.906;2.384;2022-07-25T02:07:29;1.26;;;0.66;;
65605;SDS011;52276;48.906;2.384;2022-07-25T02:08:29;1.23;;;0.73;;
65605;SDS011;52276;48.906;2.384;2022-07-25T02:09:29;1.25;;;0.78;;
65605;SDS011;52276;48.906;2.384;2022-07-25T02:10:29;1.22;;;0.61;;
65605;SDS011;52276;48.906;2.384;2022-07-25T02:11:29;1.45;;;0.85;;
65605;SDS011;52276;48.906;2.384;2022-07-25T02:12:29;1.24;;;0.7;;
65605;SDS011;52276;48.906;2.384;2022-07-25T02:13:29;1.2;;;0.71;;
65605;SDS011;52276;48.906;2.384;2022-07-25T02:14:29;1.2;;;0.66;;
65605;SDS011;52276;48.906;2.384;2022-07-25T02:15:29;1.25;;;0.65;;
65605;SDS011;52276;48.906;2.384;2022-07-25T02:16:29;1.24;;;0.58;;
65605;SDS011;52276;48.906;2.384;2022-07-25T02:17:29;1.14;;;0.44;;
65605;SDS011;52276;48.906;2.384;2022-07-25T02:18:29;1.14;;;0.39;;
65605;SDS011;52276;48.906;2.384;2022-07-25T02:19:29;1.26;;;0.65;;
65605;SDS011;52276;48.906;2.384;2022-07-25T02:20:29;1.39;;;0.6;;
65605;SDS011;52276;48.906;2.384;2022-07-25T02:21:29;1.18;;;0.41;;
65605;SDS011;52276;48.906;2.384;2022-07-25T02:22:29;1.24;;;0.49;;
65605;SDS011;52276;48.906;2.384;2022-07-25T02:23:29;1.24;;;0.5;;
65605;SDS011;52276;48.906;2.384;2022-07-25T02:24:29;1.14;;;0.41;;
65605;SDS011;52276;48.906;2.384;2022-07-25T02:25:29;1.25;;;0.52;;
65605;SDS011;52276;48.906;2.384;2022-07-25T02:26:29;1.14;;;0.46;;
65605;SDS011;52276;48.906;2.384;2022-07-25T02:27:29;1.03;;;0.31;;
65605;SDS011;52276;48.906;2.384;2022-07-25T02:28:29;1.07;;;0.31;;
65605;SDS011;52276;48.906;2.384;2022-07-25T02:29:29;1.1;;;0.36;;
65605;SDS011;52276;48.906;2.384;2022-07-25T02:30:29;1.16;;;0.43;;
65605;SDS011;52276;48.906;2.384;2022-07-25T02:31:29;1.19;;;0.4;;
65605;SDS011;52276;48.906;2.384;2022-07-25T02:32:29;1.1;;;0.42;;
65605;SDS011;52276;48.906;2.384;2022-07-25T02:33:29;1.24;;;0.54;;
65605;SDS011;52276;48.906;2.384;2022-07-25T02:34:29;1.2;;;0.44;;
65605;SDS011;52276;48.906;2.384;2022-07-25T02:35:29;1.12;;;0.35;;
65605;SDS011;52276;48.906;2.384;2022-07-25T02:36:29;1.35;;;0.46;;
65605;SDS011;52276;48.906;2.384;2022-07-25T02:37:29;1.17;;;0.46;;
65605;SDS011;52276;48.906;2.384;2022-07-25T02:38:29;1.13;;;0.46;;
65605;SDS011;52276;48.906;2.384;2022-07-25T02:39:29;1.17;;;0.41;;
65605;SDS011;52276;48.906;2.384;2022-07-25T02:40:29;1.41;;;0.65;;
65605;SDS011;52276;48.906;2.384;2022-07-25T02:41:29;1.15;;;0.49;;
65605;SDS011;52276;48.906;2.384;2022-07-25T02:42:29;1.15;;;0.37;;
65605;SDS011;52276;48.906;2.384;2022-07-25T02:43:29;1.06;;;0.32;;
65605;SDS011;52276;48.906;2.384;2022-07-25T02:44:29;1.13;;;0.37;;
65605;SDS011;52276;48.906;2.384;2022-07-25T02:45:29;1.18;;;0.48;;
65605;SDS011;52276;48.906;2.384;2022-07-25T02:46:29;1.19;;;0.59;;
65605;SDS011;52276;48.906;2.384;2022-07-25T02:47:29;1.34;;;0.51;;
65605;SDS011;52276;48.906;2.384;2022-07-25T02:48:29;1.55;;;0.48;;
65605;SDS011;52276;48.906;2.384;2022-07-25T02:49:29;1.7;;;0.64;;
65605;SDS011;52276;48.906;2.384;2022-07-25T02:50:29;1.32;;;0.59;;
65605;SDS011;52276;48.906;2.384;2022-07-25T02:51:29;1.31;;;0.57;;
65605;SDS011;52276;48.906;2.384;2022-07-25T02:52:29;1.16;;;0.47;;
65605;SDS011;52276;48.906;2.384;2022-07-25T02:53:29;1.11;;;0.38;;
65605;SDS011;52276;48.906;2.384;2022-07-25T02:54:29;1.29;;;0.49;;
65605;SDS011;52276;48.906;2.384;2022-07-25T02:55:29;1.11;;;0.38;;
65605;SDS011;52276;48.906;2.384;2022-07-25T02:56:29;1.2;;;0.51;;
65605;SDS011;52276;48.906;2.384;2022-07-25T02:57:29;1.12;;;0.4;;
65605;SDS011;52276;48.906;2.384;2022-07-25T02:58:29;1.01;;;0.27;;
65605;SDS011;52276;48.906;2.384;2022-07-25T02:59:29;1.24;;;0.39;;
65605;SDS011;52276;48.906;2.384;2022-07-25T03:00:29;1.07;;;0.37;;
65605;SDS011;52276;48.906;2.384;2022-07-25T03:01:29;1.14;;;0.37;;
65605;SDS011;52276;48.906;2.384;2022-07-25T03:02:29;1.16;;;0.44;;
65605;SDS011;52276;48.906;2.384;2022-07-25T03:03:29;1.19;;;0.47;;
65605;SDS011;52276;48.906;2.384;2022-07-25T03:04:29;1.17;;;0.39;;
65605;SDS011;52276;48.906;2.384;2022-07-25T03:05:29;1.18;;;0.39;;
65605;SDS011;52276;48.906;2.384;2022-07-25T03:06:29;1.09;;;0.32;;
65605;SDS011;52276;48.906;2.384;2022-07-25T03:07:29;1.01;;;0.27;;
65605;SDS011;52276;48.906;2.384;2022-07-25T03:08:29;1.06;;;0.3;;
65605;SDS011;52276;48.906;2.384;2022-07-25T03:09:29;1.05;;;0.34;;
65605;SDS011;52276;48.906;2.384;2022-07-25T03:10:29;1.15;;;0.42;;
65605;SDS011;52276;48.906;2.384;2022-07-25T03:11:29;1.09;;;0.37;;
65605;SDS011;52276;48.906;2.384;2022-07-25T03:12:29;1.13;;;0.47;;
65605;SDS011;52276;48.906;2.384;2022-07-25T03:13:29;1.22;;;0.61;;
65605;SDS011;52276;48.906;2.384;2022-07-25T03:14:29;1.15;;;0.58;;
65605;SDS011;52276;48.906;2.384;2022-07-25T03:15:29;2.57;;;0.62;;
65605;SDS011;52276;48.906;2.384;2022-07-25T03:16:29;1.24;;;0.47;;
65605;SDS011;52276;48.906;2.384;2022-07-25T03:17:29;1.11;;;0.4;;
65605;SDS011;52276;48.906;2.384;2022-07-25T03:18:29;1.11;;;0.39;;
65605;SDS011;52276;48.906;2.384;2022-07-25T03:19:29;1.12;;;0.4;;
65605;SDS011;52276;48.906;2.384;2022-07-25T03:20:29;1.1;;;0.4;;
65605;SDS011;52276;48.906;2.384;2022-07-25T03:21:29;0.97;;;0.27;;
65605;SDS011;52276;48.906;2.384;2022-07-25T03:22:29;1.14;;;0.42;;
65605;SDS011;52276;48.906;2.384;2022-07-25T03:23:29;1.23;;;0.49;;
65605;SDS011;52276;48.906;2.384;2022-07-25T03:24:29;1.12;;;0.37;;
65605;SDS011;52276;48.906;2.384;2022-07-25T03:25:29;1.11;;;0.49;;
65605;SDS011;52276;48.906;2.384;2022-07-25T03:26:29;1.12;;;0.49;;
65605;SDS011;52276;48.906;2.384;2022-07-25T03:27:29;1.12;;;0.43;;
65605;SDS011;52276;48.906;2.384;2022-07-25T03:28:29;1.14;;;0.46;;
65605;SDS011;52276;48.906;2.384;2022-07-25T03:29:29;1.2;;;0.37;;
65605;SDS011;52276;48.906;2.384;2022-07-25T03:30:29;1.14;;;0.49;;
65605;SDS011;52276;48.906;2.384;2022-07-25T03:31:29;1.11;;;0.57;;
65605;SDS011;52276;48.906;2.384;2022-07-25T03:32:29;1.19;;;0.61;;
65605;SDS011;52276;48.906;2.384;2022-07-25T03:33:29;1.24;;;0.56;;
65605;SDS011;52276;48.906;2.384;2022-07-25T03:34:29;1.06;;;0.32;;
65605;SDS011;52276;48.906;2.384;2022-07-25T03:35:29;1.03;;;0.31;;
65605;SDS011;52276;48.906;2.384;2022-07-25T03:36:29;1.05;;;0.32;;
65605;SDS011;52276;48.906;2.384;2022-07-25T03:37:29;1.12;;;0.42;;
65605;SDS011;52276;48.906;2.384;2022-07-25T03:38:29;1.15;;;0.51;;
65605;SDS011;52276;48.906;2.384;2022-07-25T03:39:29;1.17;;;0.48;;
65605;SDS011;52276;48.906;2.384;2022-07-25T03:40:29;1.1;;;0.4;;
65605;SDS011;52276;48.906;2.384;2022-07-25T03:41:29;1.22;;;0.54;;
65605;SDS011;52276;48.906;2.384;2022-07-25T03:42:29;1.11;;;0.44;;
65605;SDS011;52276;48.906;2.384;2022-07-25T03:43:29;1.05;;;0.41;;
65605;SDS011;52276;48.906;2.384;2022-07-25T03:44:29;1.02;;;0.31;;
65605;SDS011;52276;48.906;2.384;2022-07-25T03:45:29;1.18;;;0.46;;
65605;SDS011;52276;48.906;2.384;2022-07-25T03:46:29;0.99;;;0.25;;
65605;SDS011;52276;48.906;2.384;2022-07-25T03:47:29;1.17;;;0.42;;
65605;SDS011;52276;48.906;2.384;2022-07-25T03:48:29;1.18;;;0.54;;
65605;SDS011;52276;48.906;2.384;2022-07-25T03:49:29;1.12;;;0.5;;
65605;SDS011;52276;48.906;2.384;2022-07-25T03:50:29;1.04;;;0.31;;
65605;SDS011;52276;48.906;2.384;2022-07-25T03:51:29;1.04;;;0.31;;
65605;SDS011;52276;48.906;2.384;2022-07-25T03:52:29;1.19;;;0.43;;
65605;SDS011;52276;48.906;2.384;2022-07-25T03:53:29;0.97;;;0.28;;
65605;SDS011;52276;48.906;2.384;2022-07-25T03:54:29;1.01;;;0.3;;
65605;SDS011;52276;48.906;2.384;2022-07-25T03:55:29;1.11;;;0.42;;
65605;SDS011;52276;48.906;2.384;2022-07-25T03:56:29;1.31;;;0.28;;
65605;SDS011;52276;48.906;2.384;2022-07-25T03:57:29;1.14;;;0.39;;
65605;SDS011;52276;48.906;2.384;2022-07-25T03:58:29;1.09;;;0.36;;
65605;SDS011;52276;48.906;2.384;2022-07-25T03:59:29;1.04;;;0.32;;
65605;SDS011;52276;48.906;2.384;2022-07-25T04:00:29;1.03;;;0.33;;
65605;SDS011;52276;48.906;2.384;2022-07-25T04:01:29;1.08;;;0.38;;
65605;SDS011;52276;48.906;2.384;2022-07-25T04:02:29;1.1;;;0.43;;
65605;SDS011;52276;48.906;2.384;2022-07-25T04:03:29;1.07;;;0.49;;
65605;SDS011;52276;48.906;2.384;2022-07-25T04:04:29;1.09;;;0.47;;
65605;SDS011;52276;48.906;2.384;2022-07-25T04:05:29;1.05;;;0.39;;
65605;SDS011;52276;48.906;2.384;2022-07-25T04:06:29;1.1;;;0.41;;
65605;SDS011;52276;48.906;2.384;2022-07-25T04:07:29;1.04;;;0.41;;
65605;SDS011;52276;48.906;2.384;2022-07-25T04:08:29;1.05;;;0.42;;
65605;SDS011;52276;48.906;2.384;2022-07-25T04:09:29;1.08;;;0.41;;
65605;SDS011;52276;48.906;2.384;2022-07-25T04:10:29;1.04;;;0.35;;
65605;SDS011;52276;48.906;2.384;2022-07-25T04:11:29;1.01;;;0.31;;
65605;SDS011;52276;48.906;2.384;2022-07-25T04:12:29;1.1;;;0.39;;
65605;SDS011;52276;48.906;2.384;2022-07-25T04:13:29;1.15;;;0.43;;
65605;SDS011;52276;48.906;2.384;2022-07-25T04:14:29;1.19;;;0.45;;
65605;SDS011;52276;48.906;2.384;2022-07-25T04:15:29;1.04;;;0.31;;
65605;SDS011;52276;48.906;2.384;2022-07-25T04:16:29;1.06;;;0.33;;
65605;SDS011;52276;48.906;2.384;2022-07-25T04:17:29;1.08;;;0.38;;
65605;SDS011;52276;48.906;2.384;2022-07-25T04:18:29;1;;;0.27;;
65605;SDS011;52276;48.906;2.384;2022-07-25T04:19:29;0.95;;;0.25;;
65605;SDS011;52276;48.906;2.384;2022-07-25T04:20:29;1.06;;;0.39;;
65605;SDS011;52276;48.906;2.384;2022-07-25T04:21:29;1.06;;;0.38;;
65605;SDS011;52276;48.906;2.384;2022-07-25T04:22:29;1.06;;;0.38;;
65605;SDS011;52276;48.906;2.384;2022-07-25T04:23:30;1.02;;;0.37;;
65605;SDS011;52276;48.906;2.384;2022-07-25T04:24:29;0.95;;;0.25;;
65605;SDS011;52276;48.906;2.384;2022-07-25T04:25:29;0.98;;;0.25;;
65605;SDS011;52276;48.906;2.384;2022-07-25T04:26:29;1.08;;;0.39;;
65605;SDS011;52276;48.906;2.384;2022-07-25T04:27:29;1.05;;;0.38;;
65605;SDS011;52276;48.906;2.384;2022-07-25T04:28:29;0.97;;;0.31;;
65605;SDS011;52276;48.906;2.384;2022-07-25T04:29:29;1.21;;;0.44;;
65605;SDS011;52276;48.906;2.384;2022-07-25T04:30:29;1;;;0.31;;
65605;SDS011;52276;48.906;2.384;2022-07-25T04:31:29;1.01;;;0.31;;
65605;SDS011;52276;48.906;2.384;2022-07-25T04:32:29;1;;;0.3;;
65605;SDS011;52276;48.906;2.384;2022-07-25T04:33:29;1.08;;;0.35;;
65605;SDS011;52276;48.906;2.384;2022-07-25T04:34:29;1.04;;;0.34;;
65605;SDS011;52276;48.906;2.384;2022-07-25T04:35:29;0.97;;;0.28;;
65605;SDS011;52276;48.906;2.384;2022-07-25T04:36:29;1;;;0.34;;
65605;SDS011;52276;48.906;2.384;2022-07-25T04:37:29;1.06;;;0.34;;
65605;SDS011;52276;48.906;2.384;2022-07-25T04:38:29;1;;;0.31;;
65605;SDS011;52276;48.906;2.384;2022-07-25T04:39:29;1.1;;;0.44;;
65605;SDS011;52276;48.906;2.384;2022-07-25T04:40:29;1.06;;;0.38;;
65605;SDS011;52276;48.906;2.384;2022-07-25T04:41:29;1.09;;;0.45;;
65605;SDS011;52276;48.906;2.384;2022-07-25T04:42:29;1.06;;;0.39;;
65605;SDS011;52276;48.906;2.384;2022-07-25T04:43:29;1.04;;;0.36;;
65605;SDS011;52276;48.906;2.384;2022-07-25T04:44:29;1.09;;;0.4;;
65605;SDS011;52276;48.906;2.384;2022-07-25T04:45:29;1.04;;;0.39;;
65605;SDS011;52276;48.906;2.384;2022-07-25T04:46:29;1.07;;;0.39;;
65605;SDS011;52276;48.906;2.384;2022-07-25T04:47:29;1.03;;;0.34;;
65605;SDS011;52276;48.906;2.384;2022-07-25T04:48:29;1;;;0.29;;
65605;SDS011;52276;48.906;2.384;2022-07-25T04:49:29;0.95;;;0.26;;
65605;SDS011;52276;48.906;2.384;2022-07-25T04:50:29;0.98;;;0.29;;
65605;SDS011;52276;48.906;2.384;2022-07-25T04:51:29;0.97;;;0.26;;
65605;SDS011;52276;48.906;2.384;2022-07-25T04:52:29;1.03;;;0.37;;
65605;SDS011;52276;48.906;2.384;2022-07-25T04:53:29;1.06;;;0.34;;
65605;SDS011;52276;48.906;2.384;2022-07-25T04:54:29;1.05;;;0.37;;
65605;SDS011;52276;48.906;2.384;2022-07-25T04:55:29;1;;;0.3;;
65605;SDS011;52276;48.906;2.384;2022-07-25T04:56:29;1.01;;;0.32;;
65605;SDS011;52276;48.906;2.384;2022-07-25T04:57:29;1.09;;;0.41;;
65605;SDS011;52276;48.906;2.384;2022-07-25T04:58:30;0.98;;;0.26;;
65605;SDS011;52276;48.906;2.384;2022-07-25T04:59:29;1.05;;;0.33;;
65605;SDS011;52276;48.906;2.384;2022-07-25T05:00:29;0.98;;;0.28;;
65605;SDS011;52276;48.906;2.384;2022-07-25T05:01:29;1;;;0.36;;
65605;SDS011;52276;48.906;2.384;2022-07-25T05:02:29;1.05;;;0.35;;
65605;SDS011;52276;48.906;2.384;2022-07-25T05:03:29;1.08;;;0.37;;
65605;SDS011;52276;48.906;2.384;2022-07-25T05:04:29;0.95;;;0.28;;
65605;SDS011;52276;48.906;2.384;2022-07-25T05:05:29;1.06;;;0.35;;
65605;SDS011;52276;48.906;2.384;2022-07-25T05:06:29;1.14;;;0.47;;
65605;SDS011;52276;48.906;2.384;2022-07-25T05:07:29;1.02;;;0.37;;
65605;SDS011;52276;48.906;2.384;2022-07-25T05:08:29;1.03;;;0.36;;
65605;SDS011;52276;48.906;2.384;2022-07-25T05:09:29;1.06;;;0.36;;
65605;SDS011;52276;48.906;2.384;2022-07-25T05:10:29;1.04;;;0.39;;
65605;SDS011;52276;48.906;2.384;2022-07-25T05:11:29;1.08;;;0.41;;
65605;SDS011;52276;48.906;2.384;2022-07-25T05:12:29;0.99;;;0.31;;
65605;SDS011;52276;48.906;2.384;2022-07-25T05:13:29;1.05;;;0.42;;
65605;SDS011;52276;48.906;2.384;2022-07-25T05:14:29;1.02;;;0.37;;
65605;SDS011;52276;48.906;2.384;2022-07-25T05:15:29;1.02;;;0.35;;
65605;SDS011;52276;48.906;2.384;2022-07-25T05:16:29;1.01;;;0.35;;
65605;SDS011;52276;48.906;2.384;2022-07-25T05:17:29;1;;;0.3;;
65605;SDS011;52276;48.906;2.384;2022-07-25T05:18:29;1.42;;;0.42;;
65605;SDS011;52276;48.906;2.384;2022-07-25T05:19:29;1.05;;;0.39;;
65605;SDS011;52276;48.906;2.384;2022-07-25T05:20:29;0.98;;;0.31;;
65605;SDS011;52276;48.906;2.384;2022-07-25T05:21:29;1;;;0.35;;
65605;SDS011;52276;48.906;2.384;2022-07-25T05:22:29;1.12;;;0.48;;
65605;SDS011;52276;48.906;2.384;2022-07-25T05:23:29;0.98;;;0.31;;
65605;SDS011;52276;48.906;2.384;2022-07-25T05:24:31;0.99;;;0.27;;
65605;SDS011;52276;48.906;2.384;2022-07-25T05:25:29;1.05;;;0.35;;
65605;SDS011;52276;48.906;2.384;2022-07-25T05:26:30;0.95;;;0.31;;
65605;SDS011;52276;48.906;2.384;2022-07-25T05:27:29;0.98;;;0.37;;
65605;SDS011;52276;48.906;2.384;2022-07-25T05:28:29;0.99;;;0.33;;
65605;SDS011;52276;48.906;2.384;2022-07-25T05:29:30;0.97;;;0.34;;
65605;SDS011;52276;48.906;2.384;2022-07-25T05:30:29;1.01;;;0.41;;
65605;SDS011;52276;48.906;2.384;2022-07-25T05:31:29;1.02;;;0.4;;
65605;SDS011;52276;48.906;2.384;2022-07-25T05:32:30;1.02;;;0.29;;
65605;SDS011;52276;48.906;2.384;2022-07-25T05:33:29;1.05;;;0.33;;
65605;SDS011;52276;48.906;2.384;2022-07-25T05:34:29;1.06;;;0.31;;
65605;SDS011;52276;48.906;2.384;2022-07-25T05:35:29;1.21;;;0.4;;
65605;SDS011;52276;48.906;2.384;2022-07-25T05:36:30;0.99;;;0.32;;
65605;SDS011;52276;48.906;2.384;2022-07-25T05:37:29;0.99;;;0.3;;
65605;SDS011;52276;48.906;2.384;2022-07-25T05:38:29;0.96;;;0.27;;
65605;SDS011;52276;48.906;2.384;2022-07-25T05:39:30;0.94;;;0.22;;
65605;SDS011;52276;48.906;2.384;2022-07-25T05:40:29;1;;;0.27;;
65605;SDS011;52276;48.906;2.384;2022-07-25T05:41:29;1;;;0.27;;
65605;SDS011;52276;48.906;2.384;2022-07-25T05:42:30;0.95;;;0.22;;
65605;SDS011;52276;48.906;2.384;2022-07-25T05:43:29;0.93;;;0.24;;
65605;SDS011;52276;48.906;2.384;2022-07-25T05:44:29;0.93;;;0.24;;
65605;SDS011;52276;48.906;2.384;2022-07-25T05:45:30;1.05;;;0.24;;
65605;SDS011;52276;48.906;2.384;2022-07-25T05:46:31;0.94;;;0.17;;
65605;SDS011;52276;48.906;2.384;2022-07-25T05:47:29;0.94;;;0.24;;
65605;SDS011;52276;48.906;2.384;2022-07-25T05:48:30;1.09;;;0.38;;
65605;SDS011;52276;48.906;2.384;2022-07-25T05:49:29;1.02;;;0.35;;
65605;SDS011;52276;48.906;2.384;2022-07-25T05:50:29;1.09;;;0.33;;
65605;SDS011;52276;48.906;2.384;2022-07-25T05:51:29;1.02;;;0.31;;
65605;SDS011;52276;48.906;2.384;2022-07-25T05:52:30;0.97;;;0.28;;
65605;SDS011;52276;48.906;2.384;2022-07-25T05:53:29;0.97;;;0.28;;
65605;SDS011;52276;48.906;2.384;2022-07-25T05:54:29;0.99;;;0.31;;
65605;SDS011;52276;48.906;2.384;2022-07-25T05:55:29;0.97;;;0.25;;
65605;SDS011;52276;48.906;2.384;2022-07-25T05:56:29;0.99;;;0.26;;
65605;SDS011;52276;48.906;2.384;2022-07-25T05:57:29;0.99;;;0.26;;
65605;SDS011;52276;48.906;2.384;2022-07-25T05:58:29;0.97;;;0.27;;
65605;SDS011;52276;48.906;2.384;2022-07-25T05:59:29;1.06;;;0.37;;
65605;SDS011;52276;48.906;2.384;2022-07-25T06:00:29;1.04;;;0.37;;
65605;SDS011;52276;48.906;2.384;2022-07-25T06:01:29;0.97;;;0.34;;
65605;SDS011;52276;48.906;2.384;2022-07-25T06:02:30;0.91;;;0.3;;